Time;durP1;ratioP1;P1;durP2;ratioP2;P2;SDS_P1;SDS_P2;PMS_P1;PMS_P2;Temp;Humidity;BMP_temperature;BMP_pressure;BME280_temperature;BME280_humidity;BME280_pressure;Samples;Min_cycle;Max_cycle;Signal;HPM_P1;HPM_P2
2022/09/05 00:01:11;;;;;;;0.00;0.00;;;18.20;92.40;;;;;;5073471;28;20059;-81
2022/09/05 00:03:54;;;;;;;0.03;0.00;;;18.20;92.30;;;;;;5056848;28;20373;-81
2022/09/05 00:06:23;;;;;;;0.57;0.20;;;18.20;93.10;;;;;;5073090;28;20495;-80
2022/09/05 00:08:49;;;;;;;0.00;0.00;;;18.10;92.90;;;;;;5073122;28;20066;-81
2022/09/05 00:11:38;;;;;;;0.00;0.00;;;18.10;92.90;;;;;;5072725;28;20135;-81
2022/09/05 00:14:10;;;;;;;0.00;0.00;;;18.10;92.90;;;;;;5056885;28;20062;-81
2022/09/05 00:16:52;;;;;;;0.03;0.03;;;18.00;93.10;;;;;;5072519;28;20066;-81
2022/09/05 00:19:30;;;;;;;0.00;0.00;;;18.00;93.10;;;;;;5073554;28;20052;-81
2022/09/05 00:22:15;;;;;;;0.00;0.00;;;17.90;93.10;;;;;;5056485;28;20127;-81
2022/09/05 00:24:58;;;;;;;0.03;0.00;;;17.90;93.10;;;;;;5073048;28;20036;-80
2022/09/05 00:27:30;;;;;;;0.00;0.00;;;17.90;93.40;;;;;;5073134;28;20044;-81
2022/09/05 00:30:01;;;;;;;0.00;0.00;;;17.90;93.60;;;;;;5073085;28;20041;-81
2022/09/05 00:32:53;;;;;;;0.00;0.00;;;17.90;93.40;;;;;;5072377;28;20087;-80
2022/09/05 00:35:22;;;;;;;0.00;0.00;;;17.90;93.60;;;;;;5072900;28;20043;-80
2022/09/05 00:37:49;;;;;;;0.00;0.00;;;17.80;93.50;;;;;;5055513;28;20051;-80
2022/09/05 00:40:26;;;;;;;0.00;0.00;;;17.80;93.90;;;;;;5072363;28;20051;-81
2022/09/05 00:43:03;;;;;;;0.00;0.00;;;17.70;93.80;;;;;;5054217;28;20048;-81
2022/09/05 00:45:42;;;;;;;0.00;0.00;;;17.70;94.10;;;;;;5072812;28;20048;-81
2022/09/05 00:48:14;;;;;;;0.22;0.22;;;17.70;94.20;;;;;;5056000;28;20060;-81
2022/09/05 00:51:22;;;;;;;0.00;0.00;;;17.70;94.20;;;;;;5055647;28;20094;-81
2022/09/05 00:54:24;;;;;;;0.00;0.00;;;17.60;94.30;;;;;;5072951;28;20051;-80
2022/09/05 00:57:16;;;;;;;0.00;0.00;;;17.60;94.30;;;;;;4998187;28;20053;-80
2022/09/05 01:00:02;;;;;;;0.00;0.00;;;17.60;94.50;;;;;;4998903;28;20568;-80
2022/09/05 01:02:41;;;;;;;0.00;0.00;;;17.60;94.50;;;;;;4937517;29;20055;-80
2022/09/05 01:05:22;;;;;;;0.00;0.00;;;17.60;94.40;;;;;;4937649;29;20058;-80
2022/09/05 01:07:50;;;;;;;0.00;0.00;;;17.60;94.30;;;;;;4936958;29;20059;-81
2022/09/05 01:10:33;;;;;;;0.00;0.00;;;17.50;94.70;;;;;;4937578;29;20216;-81
2022/09/05 01:13:39;;;;;;;0.00;0.00;;;17.50;94.50;;;;;;4921608;29;20150;-81
2022/09/05 01:16:33;;;;;;;0.00;0.00;;;17.50;94.80;;;;;;4921640;29;20116;-80
2022/09/05 01:19:04;;;;;;;0.00;0.00;;;17.50;94.80;;;;;;4937477;29;20106;-81
2022/09/05 01:21:50;;;;;;;0.00;0.00;;;17.50;94.60;;;;;;4953938;29;20103;-81
2022/09/05 01:24:31;;;;;;;0.20;0.20;;;17.40;94.70;;;;;;4953239;29;20063;-81
2022/09/05 01:27:34;;;;;;;0.00;0.00;;;17.40;94.90;;;;;;4937309;29;20438;-81
2022/09/05 01:30:27;;;;;;;0.22;0.00;;;17.40;94.90;;;;;;4925022;29;20154;-81
2022/09/05 01:33:36;;;;;;;0.45;0.30;;;17.40;94.80;;;;;;4941496;28;20050;-80
2022/09/05 01:36:23;;;;;;;0.00;0.00;;;17.40;95.30;;;;;;4960037;28;20051;-80
2022/09/05 01:39:16;;;;;;;0.00;0.00;;;17.40;95.20;;;;;;4983233;28;20450;-80
2022/09/05 01:42:15;;;;;;;2.17;0.55;;;17.30;95.10;;;;;;4982681;28;20045;-80
2022/09/05 01:45:01;;;;;;;0.00;0.00;;;17.30;95.40;;;;;;4999415;28;20065;-80
2022/09/05 01:47:41;;;;;;;0.60;0.00;;;17.30;95.20;;;;;;4998960;28;20049;-80
2022/09/05 01:50:07;;;;;;;0.00;0.00;;;17.30;94.90;;;;;;4982167;28;20050;-80
2022/09/05 01:52:58;;;;;;;0.00;0.00;;;17.30;94.90;;;;;;4998437;28;20494;-80
2022/09/05 01:55:37;;;;;;;0.00;0.00;;;17.30;95.40;;;;;;4982477;28;20057;-80
2022/09/05 01:58:25;;;;;;;0.00;0.00;;;17.20;95.10;;;;;;4998761;28;20064;-80
2022/09/05 02:01:16;;;;;;;0.00;0.00;;;17.20;95.00;;;;;;4982323;28;20077;-80
2022/09/05 02:04:04;;;;;;;0.00;0.00;;;17.20;95.70;;;;;;4982646;28;20061;-80
2022/09/05 02:06:58;;;;;;;0.00;0.00;;;17.10;95.60;;;;;;4998483;28;20514;-80
2022/09/05 02:09:30;;;;;;;0.00;0.00;;;17.10;95.50;;;;;;4923662;28;20104;-80
2022/09/05 02:12:00;;;;;;;0.00;0.00;;;17.10;95.70;;;;;;4978801;28;20494;-81
2022/09/05 02:14:28;;;;;;;0.00;0.00;;;17.00;95.90;;;;;;4978992;28;20054;-80
2022/09/05 02:17:06;;;;;;;0.00;0.00;;;17.10;96.40;;;;;;4979004;28;20137;-80
2022/09/05 02:19:42;;;;;;;0.00;0.00;;;17.00;96.40;;;;;;4977980;28;20058;-80
2022/09/05 02:22:18;;;;;;;0.20;0.00;;;17.00;96.70;;;;;;4978664;28;20094;-80
2022/09/05 02:24:52;;;;;;;0.00;0.00;;;16.90;96.60;;;;;;4962848;28;20050;-80
2022/09/05 02:27:38;;;;;;;0.00;0.00;;;16.90;96.80;;;;;;4978957;28;20058;-80
2022/09/05 02:30:07;;;;;;;0.00;0.00;;;16.90;96.70;;;;;;4962600;28;20061;-80
2022/09/05 02:32:36;;;;;;;0.25;0.25;;;16.90;96.80;;;;;;4978406;28;20051;-80
2022/09/05 02:35:10;;;;;;;0.00;0.00;;;16.90;97.00;;;;;;4978643;28;20129;-80
2022/09/05 02:37:54;;;;;;;0.00;0.00;;;16.80;96.70;;;;;;4962372;28;20050;-80
2022/09/05 02:40:47;;;;;;;0.00;0.00;;;16.80;96.70;;;;;;4977756;28;20116;-80
2022/09/05 02:43:17;;;;;;;0.20;0.00;;;16.70;96.90;;;;;;4978335;28;20038;-80
2022/09/05 02:46:00;;;;;;;0.00;0.00;;;16.70;97.10;;;;;;5001104;28;20057;-80
2022/09/05 02:48:53;;;;;;;0.35;0.00;;;16.70;97.00;;;;;;5075042;28;20052;-80
2022/09/05 02:51:49;;;;;;;0.00;0.00;;;16.70;97.50;;;;;;5057706;28;20147;-80
2022/09/05 02:54:20;;;;;;;0.10;0.00;;;16.60;97.20;;;;;;5058080;28;20084;-80
2022/09/05 02:57:05;;;;;;;0.00;0.00;;;16.60;97.10;;;;;;5057870;28;20554;-80
2022/09/05 03:00:10;;;;;;;0.00;0.00;;;16.60;97.20;;;;;;5074541;28;20067;-80
2022/09/05 03:02:53;;;;;;;0.00;0.00;;;16.60;97.30;;;;;;5057972;28;20048;-80
2022/09/05 03:05:18;;;;;;;0.00;0.00;;;16.60;97.40;;;;;;5057899;28;20488;-80
2022/09/05 03:08:20;;;;;;;0.00;0.00;;;16.60;97.80;;;;;;5057719;28;20048;-80
2022/09/05 03:11:10;;;;;;;0.00;0.00;;;16.50;98.00;;;;;;5074329;28;20135;-80
2022/09/05 03:13:55;;;;;;;0.00;0.00;;;16.50;98.00;;;;;;5057419;28;20052;-80
2022/09/05 03:16:36;;;;;;;0.10;0.05;;;16.40;97.60;;;;;;5074505;28;20396;-81
2022/09/05 03:19:38;;;;;;;0.00;0.00;;;16.40;97.90;;;;;;5074313;28;20045;-80
2022/09/05 03:22:30;;;;;;;0.00;0.00;;;16.40;98.00;;;;;;5057429;28;20051;-80
2022/09/05 03:24:58;;;;;;;0.08;0.03;;;16.40;98.10;;;;;;5057484;28;20131;-80
2022/09/05 03:28:02;;;;;;;0.00;0.00;;;16.30;98.50;;;;;;5057161;28;20496;-80
2022/09/05 03:31:05;;;;;;;0.00;0.00;;;16.30;98.40;;;;;;5073678;28;20091;-80
2022/09/05 03:34:04;;;;;;;0.00;0.00;;;16.30;98.10;;;;;;5057200;28;20049;-80
2022/09/05 03:36:35;;;;;;;0.10;0.03;;;16.20;98.30;;;;;;5074053;28;20430;-80
2022/09/05 03:39:20;;;;;;;0.00;0.00;;;16.20;98.50;;;;;;5074139;28;20048;-81
2022/09/05 03:42:04;;;;;;;0.00;0.00;;;16.10;98.60;;;;;;5057334;28;20473;-81
2022/09/05 03:44:59;;;;;;;0.00;0.00;;;16.10;98.80;;;;;;5057292;28;20139;-81
2022/09/05 03:47:52;;;;;;;0.00;0.00;;;16.10;99.10;;;;;;5073390;28;20096;-81
2022/09/05 03:50:31;;;;;;;0.00;0.00;;;16.10;99.10;;;;;;5056967;28;20122;-81
2022/09/05 03:53:35;;;;;;;0.00;0.00;;;16.00;99.10;;;;;;5072530;28;20048;-81
2022/09/05 03:56:29;;;;;;;0.00;0.00;;;16.00;99.30;;;;;;5073584;28;20392;-81
2022/09/05 03:59:35;;;;;;;0.00;0.00;;;16.00;99.40;;;;;;5057226;28;20088;-81
2022/09/05 04:02:07;;;;;;;0.00;0.00;;;16.00;99.30;;;;;;5016492;28;20064;-81
2022/09/05 04:04:41;;;;;;;0.17;0.10;;;15.90;99.70;;;;;;5016029;28;20057;-81
2022/09/05 04:07:31;;;;;;;0.10;0.00;;;15.90;99.80;;;;;;4999608;28;20045;-81
2022/09/05 04:10:02;;;;;;;0.28;0.00;;;15.90;99.90;;;;;;5015970;28;20145;-81
2022/09/05 04:12:37;;;;;;;0.00;0.00;;;15.90;99.60;;;;;;5015671;28;20053;-81
2022/09/05 04:15:12;;;;;;;0.00;0.00;;;15.80;99.40;;;;;;5016353;28;20072;-80
2022/09/05 04:17:48;;;;;;;0.00;0.00;;;15.80;99.90;;;;;;5016115;28;20061;-80
2022/09/05 04:20:22;;;;;;;0.00;0.00;;;15.80;99.80;;;;;;4998931;28;20497;-81
2022/09/05 04:23:10;;;;;;;0.00;0.00;;;15.80;99.90;;;;;;5016268;28;20049;-80
2022/09/05 04:26:05;;;;;;;0.15;0.05;;;15.70;99.90;;;;;;4937608;29;20055;-80
2022/09/05 04:28:40;;;;;;;0.17;0.17;;;15.70;99.90;;;;;;4921817;29;20071;-81
2022/09/05 04:31:19;;;;;;;;;;;15.70;99.90;;;;;;4938523;29;20094;-81
2022/09/05 04:34:20;;;;;;;0.00;0.00;;;15.60;99.80;;;;;;4935856;29;20454;-81
2022/09/05 04:37:01;;;;;;;0.00;0.00;;;15.60;99.90;;;;;;4931111;28;20053;-81
2022/09/05 04:39:28;;;;;;;0.00;0.00;;;15.50;99.90;;;;;;4979568;28;20048;-80
2022/09/05 04:42:20;;;;;;;0.00;0.00;;;15.50;99.90;;;;;;4995796;28;20398;-80
2022/09/05 04:44:48;;;;;;;0.00;0.00;;;15.50;99.90;;;;;;4996178;28;20148;-80
2022/09/05 04:47:36;;;;;;;0.00;0.00;;;15.50;99.90;;;;;;4995863;28;20037;-80
2022/09/05 04:50:13;;;;;;;0.63;0.15;;;15.40;99.90;;;;;;4995476;28;20144;-81
2022/09/05 04:53:15;;;;;;;0.10;0.10;;;15.40;99.90;;;;;;4995618;28;20049;-81
2022/09/05 04:55:48;;;;;;;0.00;0.00;;;15.30;99.90;;;;;;4995856;28;20422;-80
2022/09/05 04:58:39;;;;;;;0.25;0.00;;;15.30;99.90;;;;;;4996150;28;20065;-80
2022/09/05 05:01:15;;;;;;;0.00;0.00;;;15.30;99.90;;;;;;4979637;28;20543;-80
2022/09/05 05:03:43;;;;;;;0.20;0.13;;;15.30;99.90;;;;;;5051343;28;20063;-80
2022/09/05 05:06:19;;;;;;;0.00;0.00;;;15.30;99.90;;;;;;5056133;28;20096;-80
2022/09/05 05:09:02;;;;;;;0.08;0.00;;;15.30;99.90;;;;;;5072772;28;20145;-80
2022/09/05 05:11:46;;;;;;;0.08;0.08;;;15.30;99.90;;;;;;5072353;28;20082;-80
2022/09/05 05:14:35;;;;;;;0.00;0.00;;;15.20;99.90;;;;;;5056345;28;20117;-80
2022/09/05 05:17:30;;;;;;;0.00;0.00;;;15.30;99.90;;;;;;5072627;28;20043;-80
2022/09/05 05:20:19;;;;;;;0.00;0.00;;;15.30;99.90;;;;;;4998784;28;20054;-80
2022/09/05 05:23:01;;;;;;;0.00;0.00;;;15.30;99.90;;;;;;4995699;28;20056;-80
2022/09/05 05:25:28;;;;;;;0.00;0.00;;;15.30;99.90;;;;;;4998743;28;20065;-80
2022/09/05 05:28:12;;;;;;;0.00;0.00;;;15.30;99.90;;;;;;5014218;28;20065;-80
2022/09/05 05:30:39;;;;;;;0.00;0.00;;;15.30;99.90;;;;;;5015188;28;20057;-80
2022/09/05 05:33:30;;;;;;;0.00;0.00;;;15.30;99.90;;;;;;5014771;28;20065;-80
2022/09/05 05:35:59;;;;;;;0.30;0.20;;;15.30;99.90;;;;;;5014735;28;20053;-80
2022/09/05 05:38:37;;;;;;;0.00;0.00;;;15.30;99.90;;;;;;5014838;28;20454;-79
2022/09/05 05:41:31;;;;;;;0.00;0.00;;;15.40;99.90;;;;;;5047053;28;20489;-79
2022/09/05 05:43:57;;;;;;;0.00;0.00;;;15.40;99.90;;;;;;5011759;28;20065;-80
2022/09/05 05:46:34;;;;;;;0.00;0.00;;;15.40;99.90;;;;;;5014422;28;20054;-80
2022/09/05 05:49:17;;;;;;;0.08;0.08;;;15.40;99.90;;;;;;5015034;28;20049;-80
2022/09/05 05:51:52;;;;;;;0.00;0.00;;;15.50;99.90;;;;;;4997541;28;20556;-80
2022/09/05 05:54:50;;;;;;;0.00;0.00;;;15.50;99.90;;;;;;4999040;28;20057;-80
2022/09/05 05:57:51;;;;;;;0.00;0.00;;;15.60;99.90;;;;;;4982692;28;20057;-80
2022/09/05 06:00:53;;;;;;;0.85;0.00;;;15.60;99.90;;;;;;4995065;28;20072;-80
2022/09/05 06:03:53;;;;;;;0.10;0.00;;;15.70;99.90;;;;;;4995153;28;20092;-80
2022/09/05 06:06:28;;;;;;;0.00;0.00;;;15.80;99.90;;;;;;4978988;28;20050;-79
2022/09/05 06:09:11;;;;;;;;;;;15.90;99.90;;;;;;4995352;28;20061;-79
2022/09/05 06:12:02;;;;;;;0.00;0.00;;;15.90;99.90;;;;;;4991904;28;20015;-79
2022/09/05 06:14:47;;;;;;;0.00;0.00;;;16.00;99.90;;;;;;5014628;28;20061;-81
2022/09/05 06:17:18;;;;;;;0.00;0.00;;;16.10;99.90;;;;;;5002295;28;20093;-81
2022/09/05 06:20:08;;;;;;;0.00;0.00;;;16.20;99.90;;;;;;5001721;28;20093;-79
2022/09/05 06:23:02;;;;;;;0.00;0.00;;;16.30;99.90;;;;;;5001503;28;20050;-80
2022/09/05 06:25:55;;;;;;;0.30;0.30;;;16.30;99.90;;;;;;5017835;28;20397;-80
2022/09/05 06:29:02;;;;;;;0.10;0.03;;;16.40;99.90;;;;;;5017931;28;20056;-79
2022/09/05 06:32:00;;;;;;;0.05;0.05;;;16.50;99.90;;;;;;5015432;28;20049;-79
2022/09/05 06:34:43;;;;;;;0.10;0.00;;;16.60;99.90;;;;;;5056000;28;20048;-80
2022/09/05 06:37:31;;;;;;;0.00;0.00;;;16.60;99.90;;;;;;5075367;28;20055;-82
2022/09/05 06:40:26;;;;;;;0.20;0.20;;;16.70;99.90;;;;;;5060525;28;20377;-79
2022/09/05 06:43:08;;;;;;;0.00;0.00;;;16.80;99.90;;;;;;5061898;28;20048;-79
2022/09/05 06:45:48;;;;;;;0.13;0.13;;;16.90;99.90;;;;;;5080509;28;20044;-78
2022/09/05 06:48:21;;;;;;;0.00;0.00;;;17.00;99.90;;;;;;5063206;28;20498;-79
2022/09/05 06:51:04;;;;;;;0.10;0.10;;;17.10;99.90;;;;;;5078161;28;20060;-79
2022/09/05 06:53:52;;;;;;;0.10;0.00;;;17.20;99.90;;;;;;5061294;28;20122;-79
2022/09/05 06:56:23;;;;;;;0.00;0.00;;;17.40;99.90;;;;;;5059071;28;20519;-79
2022/09/05 06:59:19;;;;;;;0.00;0.00;;;17.50;99.90;;;;;;5075163;28;20041;-79
2022/09/05 07:02:06;;;;;;;0.13;0.00;;;17.90;99.90;;;;;;5075541;28;20048;-79
2022/09/05 07:04:45;;;;;;;0.00;0.00;;;18.40;99.90;;;;;;5058433;28;20471;-79
2022/09/05 07:07:25;;;;;;;0.00;0.00;;;18.70;99.90;;;;;;5058534;28;20074;-79
2022/09/05 07:10:03;;;;;;;0.00;0.00;;;18.90;99.70;;;;;;5075124;28;20036;-79
2022/09/05 07:12:38;;;;;;;0.00;0.00;;;19.10;99.30;;;;;;5057490;28;20053;-79
2022/09/05 07:15:04;;;;;;;0.00;0.00;;;19.20;99.60;;;;;;5074068;28;20441;-80
2022/09/05 07:18:08;;;;;;;0.00;0.00;;;19.30;99.00;;;;;;5074304;28;20072;-80
2022/09/05 07:20:49;;;;;;;0.30;0.00;;;19.60;99.20;;;;;;5020519;28;20053;-79
2022/09/05 07:23:40;;;;;;;0.32;0.10;;;19.90;98.50;;;;;;5020265;28;20056;-80
2022/09/05 07:26:09;;;;;;;0.00;0.00;;;20.30;98.80;;;;;;5019971;28;20091;-79
2022/09/05 07:28:40;;;;;;;0.00;0.00;;;20.60;97.80;;;;;;5019830;28;20099;-79
2022/09/05 07:31:12;;;;;;;0.00;0.00;;;20.90;97.70;;;;;;5036291;28;20489;-80
2022/09/05 07:33:41;;;;;;;0.20;0.10;;;21.20;97.30;;;;;;5019499;28;20140;-80
2022/09/05 07:36:18;;;;;;;0.00;0.00;;;21.50;96.40;;;;;;5036370;28;20044;-80
2022/09/05 07:38:49;;;;;;;0.15;0.15;;;21.60;96.00;;;;;;5037014;28;20606;-79
2022/09/05 07:41:27;;;;;;;0.00;0.00;;;21.50;96.50;;;;;;5020279;28;20048;-79
2022/09/05 07:43:59;;;;;;;0.05;0.05;;;21.40;95.70;;;;;;5036588;28;20049;-80
2022/09/05 07:46:32;;;;;;;0.00;0.00;;;21.30;95.70;;;;;;5019688;28;20060;-80
2022/09/05 07:49:13;;;;;;;0.15;0.15;;;21.30;96.10;;;;;;5020496;28;20447;-80
2022/09/05 07:51:52;;;;;;;0.05;0.05;;;21.20;96.00;;;;;;5019175;28;20165;-79
2022/09/05 07:54:26;;;;;;;0.10;0.10;;;21.10;96.10;;;;;;5019645;28;20139;-79
2022/09/05 07:56:53;;;;;;;0.08;0.08;;;21.10;96.10;;;;;;5045899;28;20084;-79
2022/09/05 07:59:22;;;;;;;0.00;0.00;;;21.10;95.90;;;;;;5057243;28;20135;-79
2022/09/05 08:01:51;;;;;;;1.10;0.20;;;21.10;96.80;;;;;;5056841;28;20052;-79
2022/09/05 08:04:32;;;;;;;0.00;0.00;;;21.10;96.20;;;;;;5073371;28;20056;-79
2022/09/05 08:07:36;;;;;;;0.00;0.00;;;21.10;96.80;;;;;;5056738;28;20167;-79
2022/09/05 08:10:09;;;;;;;0.00;0.00;;;21.20;96.70;;;;;;5056901;28;20045;-80
2022/09/05 08:12:43;;;;;;;0.00;0.00;;;21.30;96.60;;;;;;5056564;28;20095;-79
2022/09/05 08:15:21;;;;;;;0.10;0.10;;;21.30;96.60;;;;;;5073564;28;20076;-79
2022/09/05 08:18:15;;;;;;;0.20;0.20;;;21.30;96.40;;;;;;5056474;28;20476;-79
2022/09/05 08:21:06;;;;;;;0.00;0.00;;;21.40;96.30;;;;;;5073706;28;20048;-79
2022/09/05 08:23:53;;;;;;;0.00;0.00;;;21.40;96.50;;;;;;5056711;28;20055;-79
2022/09/05 08:26:36;;;;;;;0.00;0.00;;;21.50;96.10;;;;;;5056623;28;20048;-80
2022/09/05 08:29:15;;;;;;;0.00;0.00;;;21.60;96.20;;;;;;5056667;28;20056;-80
2022/09/05 08:31:51;;;;;;;0.00;0.00;;;21.70;96.20;;;;;;5073527;28;20045;-80
2022/09/05 08:34:28;;;;;;;0.00;0.00;;;21.80;96.70;;;;;;5073205;28;20040;-79
2022/09/05 08:36:55;;;;;;;0.00;0.00;;;21.90;96.10;;;;;;5056108;28;20052;-79
2022/09/05 08:39:27;;;;;;;0.15;0.00;;;22.00;95.80;;;;;;5073147;28;20141;-79
2022/09/05 08:41:56;;;;;;;0.40;0.15;;;22.10;96.50;;;;;;5073267;28;20072;-79
2022/09/05 08:44:49;;;;;;;0.30;0.10;;;22.20;95.70;;;;;;5056318;28;20102;-79
2022/09/05 08:47:26;;;;;;;0.00;0.00;;;22.30;95.80;;;;;;5073489;28;20071;-80
2022/09/05 08:50:30;;;;;;;0.00;0.00;;;22.40;95.30;;;;;;5056170;28;20044;-80
2022/09/05 08:53:24;;;;;;;0.10;0.10;;;22.50;95.60;;;;;;5071646;28;20052;-80
2022/09/05 08:56:16;;;;;;;0.00;0.00;;;22.60;95.70;;;;;;5056596;28;20099;-79
2022/09/05 08:58:51;;;;;;;0.30;0.10;;;22.80;95.80;;;;;;5056608;28;20135;-79
2022/09/05 09:01:28;;;;;;;0.00;0.00;;;22.90;95.30;;;;;;5056210;28;20040;-79
2022/09/05 09:04:23;;;;;;;0.00;0.00;;;23.00;94.90;;;;;;5072648;28;20040;-79
2022/09/05 09:07:05;;;;;;;0.03;0.03;;;23.30;94.70;;;;;;5055872;28;20145;-79
2022/09/05 09:09:58;;;;;;;0.20;0.10;;;23.40;94.50;;;;;;5072979;28;20044;-79
2022/09/05 09:12:29;;;;;;;1.75;0.10;;;23.60;93.90;;;;;;5056007;28;20437;-80
2022/09/05 09:15:15;;;;;;;0.00;0.00;;;23.80;94.30;;;;;;5072504;28;20503;-79
2022/09/05 09:17:45;;;;;;;0.00;0.00;;;24.10;93.60;;;;;;5055860;28;20053;-79
2022/09/05 09:20:11;;;;;;;0.00;0.00;;;24.30;93.00;;;;;;5072447;28;20396;-80
2022/09/05 09:22:48;;;;;;;0.15;0.10;;;24.40;93.90;;;;;;5055595;28;20044;-80
2022/09/05 09:25:21;;;;;;;0.00;0.00;;;24.50;93.50;;;;;;5073381;28;20191;-79
2022/09/05 09:28:05;;;;;;;0.00;0.00;;;24.60;93.20;;;;;;5072568;28;20098;-79
2022/09/05 09:30:34;;;;;;;0.00;0.00;;;24.70;92.70;;;;;;5072494;28;20044;-80
2022/09/05 09:33:06;;;;;;;0.00;0.00;;;24.90;92.80;;;;;;5071336;28;20049;-80
2022/09/05 09:36:08;;;;;;;0.00;0.00;;;25.00;92.60;;;;;;5072237;28;20076;-80
2022/09/05 09:39:05;;;;;;;1.17;0.10;;;25.20;92.70;;;;;;5072284;28;20078;-80
2022/09/05 09:42:15;;;;;;;0.10;0.10;;;25.30;92.90;;;;;;5056341;28;20053;-79
2022/09/05 09:44:56;;;;;;;0.00;0.00;;;25.40;92.00;;;;;;5034730;28;20112;-80
2022/09/05 09:47:47;;;;;;;0.10;0.10;;;25.60;92.30;;;;;;5034426;28;20386;-79
2022/09/05 09:50:24;;;;;;;0.00;0.00;;;25.80;91.60;;;;;;4938255;29;20059;-80
2022/09/05 09:53:20;;;;;;;0.05;0.00;;;25.90;91.20;;;;;;4940630;29;20044;-80
2022/09/05 09:55:58;;;;;;;0.00;0.00;;;26.10;91.00;;;;;;4956699;29;20059;-80
2022/09/05 09:58:36;;;;;;;1.00;0.25;;;26.20;90.80;;;;;;4956747;29;20047;-80
2022/09/05 10:01:13;;;;;;;0.00;0.00;;;26.30;90.80;;;;;;4940918;29;20122;-80
2022/09/05 10:04:08;;;;;;;0.00;0.00;;;26.50;90.20;;;;;;4941034;29;20411;-80
2022/09/05 10:06:46;;;;;;;;;;;26.70;90.20;;;;;;4940889;29;20055;-80
2022/09/05 10:09:49;;;;;;;0.20;0.20;;;26.90;88.30;;;;;;4940798;29;19930;-80
2022/09/05 10:12:48;;;;;;;0.00;0.00;;;27.00;88.50;;;;;;4940583;29;20044;-80
2022/09/05 10:15:28;;;;;;;0.00;0.00;;;27.00;87.20;;;;;;4928916;28;20113;-80
2022/09/05 10:18:20;;;;;;;0.10;0.10;;;27.20;88.10;;;;;;4960078;28;20089;-80
2022/09/05 10:20:59;;;;;;;0.00;0.00;;;27.30;88.30;;;;;;4966672;28;20068;-80
2022/09/05 10:24:07;;;;;;;0.15;0.10;;;27.40;87.10;;;;;;4979037;28;20056;-80
2022/09/05 10:27:08;;;;;;;0.00;0.00;;;27.50;88.20;;;;;;4946561;28;20450;-80
2022/09/05 10:29:54;;;;;;;0.70;0.35;;;27.50;85.20;;;;;;5017933;28;20046;-80
2022/09/05 10:32:39;;;;;;;0.00;0.00;;;27.70;85.40;;;;;;5017744;28;20041;-80
2022/09/05 10:35:40;;;;;;;0.00;0.00;;;27.80;84.70;;;;;;5017758;28;20049;-80
2022/09/05 10:38:39;;;;;;;0.00;0.00;;;28.10;85.30;;;;;;5017829;28;20057;-80
2022/09/05 10:41:54;;;;;;;0.00;0.00;;;28.20;87.10;;;;;;4981904;28;20139;-80
2022/09/05 10:44:51;;;;;;;0.00;0.00;;;28.60;85.00;;;;;;4994655;28;20054;-80
2022/09/05 10:47:46;;;;;;;0.00;0.00;;;28.50;81.20;;;;;;4981859;28;20140;-80
2022/09/05 10:50:26;;;;;;;0.10;0.00;;;28.80;82.10;;;;;;4997841;28;20639;-80
2022/09/05 10:53:23;;;;;;;0.00;0.00;;;28.90;80.20;;;;;;4997653;28;20053;-80
2022/09/05 10:56:06;;;;;;;0.15;0.03;;;29.10;79.50;;;;;;4981572;28;20050;-80
2022/09/05 10:58:58;;;;;;;0.00;0.00;;;29.10;77.50;;;;;;4981224;28;20501;-81
2022/09/05 11:01:40;;;;;;;0.00;0.00;;;29.20;78.10;;;;;;4997173;28;20046;-81
2022/09/05 11:04:38;;;;;;;0.00;0.00;;;29.30;77.10;;;;;;5014208;28;20541;-80
2022/09/05 11:07:09;;;;;;;0.00;0.00;;;29.50;77.90;;;;;;5017384;28;20092;-81
2022/09/05 11:09:53;;;;;;;0.00;0.00;;;29.70;76.30;;;;;;5016900;28;20061;-80
2022/09/05 11:12:48;;;;;;;0.85;0.20;;;29.80;75.40;;;;;;5013003;28;20078;-80
2022/09/05 11:15:23;;;;;;;0.00;0.00;;;29.90;75.50;;;;;;5006497;28;20056;-81
2022/09/05 11:18:08;;;;;;;0.13;0.10;;;29.90;74.70;;;;;;5036698;28;20107;-81
2022/09/05 11:20:46;;;;;;;0.00;0.00;;;30.00;76.30;;;;;;5057822;28;20048;-81
2022/09/05 11:23:30;;;;;;;0.10;0.10;;;30.10;73.50;;;;;;5057547;28;20052;-81
2022/09/05 11:26:04;;;;;;;0.10;0.00;;;30.10;71.90;;;;;;5058240;28;20102;-81
2022/09/05 11:28:50;;;;;;;0.10;0.10;;;30.00;74.40;;;;;;5074408;28;20048;-80
2022/09/05 11:31:21;;;;;;;0.00;0.00;;;30.10;73.00;;;;;;5056344;28;20122;-81
2022/09/05 11:34:05;;;;;;;0.00;0.00;;;30.20;71.90;;;;;;5073973;28;20098;-81
2022/09/05 11:36:41;;;;;;;0.00;0.00;;;30.30;72.70;;;;;;5074303;28;20072;-81
2022/09/05 11:39:07;;;;;;;0.03;0.00;;;30.40;72.80;;;;;;5057336;28;20067;-81
2022/09/05 11:42:09;;;;;;;0.85;0.20;;;30.50;72.20;;;;;;5073385;28;20396;-81
2022/09/05 11:45:02;;;;;;;0.25;0.25;;;30.30;71.30;;;;;;5057131;28;20139;-81
2022/09/05 11:47:45;;;;;;;0.00;0.00;;;29.90;70.20;;;;;;5073983;28;20083;-81
2022/09/05 11:50:46;;;;;;;0.03;0.00;;;29.90;71.00;;;;;;5056658;28;20044;-82
2022/09/05 11:53:46;;;;;;;0.00;0.00;;;30.00;71.80;;;;;;5019429;28;20055;-81
2022/09/05 11:56:45;;;;;;;0.20;0.10;;;30.20;70.90;;;;;;4958038;28;20160;-81
2022/09/05 11:59:19;;;;;;;0.00;0.00;;;30.00;71.40;;;;;;4957989;28;20106;-81
2022/09/05 12:02:13;;;;;;;0.00;0.00;;;29.70;70.10;;;;;;4974280;28;20059;-81
2022/09/05 12:04:50;;;;;;;0.00;0.00;;;29.30;70.60;;;;;;4957605;28;20152;-82
2022/09/05 12:07:50;;;;;;;0.00;0.00;;;29.20;71.30;;;;;;4973546;28;20047;-81
2022/09/05 12:10:35;;;;;;;0.20;0.10;;;29.00;69.90;;;;;;4957621;28;20561;-81
2022/09/05 12:13:19;;;;;;;0.08;0.08;;;28.80;70.70;;;;;;4956766;28;20130;-82
2022/09/05 12:15:45;;;;;;;0.00;0.00;;;28.90;72.20;;;;;;4958121;28;20082;-82
2022/09/05 12:18:33;;;;;;;0.00;0.00;;;29.10;71.50;;;;;;4957656;28;20058;-80
2022/09/05 12:21:17;;;;;;;0.00;0.00;;;29.30;71.90;;;;;;4941178;28;20479;-81
2022/09/05 12:23:48;;;;;;;0.00;0.00;;;29.30;71.90;;;;;;4973462;28;20215;-82
2022/09/05 12:26:21;;;;;;;0.00;0.00;;;29.20;71.40;;;;;;4957154;28;20077;-81
2022/09/05 12:29:02;;;;;;;0.00;0.00;;;29.20;72.80;;;;;;4957645;28;20066;-81
2022/09/05 12:31:34;;;;;;;0.00;0.00;;;29.20;70.50;;;;;;4979970;28;20161;-81
2022/09/05 12:34:02;;;;;;;0.25;0.08;;;29.20;68.60;;;;;;5064724;28;20558;-81
2022/09/05 12:36:41;;;;;;;0.00;0.00;;;29.10;70.80;;;;;;5072935;28;20052;-81
2022/09/05 12:39:18;;;;;;;0.00;0.00;;;29.00;70.60;;;;;;5072651;28;20052;-81
2022/09/05 12:42:01;;;;;;;0.00;0.00;;;28.90;72.00;;;;;;5056767;28;20045;-81
2022/09/05 12:44:48;;;;;;;0.00;0.00;;;28.70;71.00;;;;;;5056333;28;20068;-81
2022/09/05 12:47:21;;;;;;;0.00;0.00;;;28.60;73.90;;;;;;5072937;28;20051;-81
2022/09/05 12:50:12;;;;;;;0.55;0.10;;;28.40;72.30;;;;;;5056231;28;20135;-81
2022/09/05 12:52:45;;;;;;;0.00;0.00;;;28.30;75.20;;;;;;5056160;28;20041;-81
2022/09/05 12:55:18;;;;;;;0.10;0.00;;;28.50;71.90;;;;;;5056240;28;20504;-81
2022/09/05 12:57:47;;;;;;;0.07;0.07;;;28.90;71.60;;;;;;5072800;28;20060;-81
2022/09/05 13:00:21;;;;;;;0.00;0.00;;;29.00;69.50;;;;;;5072745;28;20055;-81
2022/09/05 13:03:01;;;;;;;0.00;0.00;;;29.40;71.60;;;;;;5072747;28;20522;-81
2022/09/05 13:05:51;;;;;;;0.00;0.00;;;29.70;69.90;;;;;;5055920;28;20151;-80
2022/09/05 13:08:21;;;;;;;0.00;0.00;;;30.00;69.90;;;;;;5055892;28;20049;-80
2022/09/05 13:10:53;;;;;;;0.03;0.00;;;30.20;67.70;;;;;;5055779;28;20130;-81
2022/09/05 13:13:35;;;;;;;0.00;0.00;;;30.30;69.10;;;;;;5072477;28;20056;-81
2022/09/05 13:16:03;;;;;;;0.00;0.00;;;30.20;67.30;;;;;;5073029;28;20037;-81
2022/09/05 13:18:39;;;;;;;0.00;0.00;;;30.00;68.80;;;;;;5072753;28;20432;-81
2022/09/05 13:21:23;;;;;;;0.20;0.20;;;30.20;68.80;;;;;;5056365;28;20045;-81
2022/09/05 13:24:10;;;;;;;0.00;0.00;;;30.40;68.30;;;;;;5073327;28;20209;-81
2022/09/05 13:26:56;;;;;;;0.00;0.00;;;30.60;66.10;;;;;;5077184;28;20060;-80
2022/09/05 13:29:28;;;;;;;0.08;0.00;;;30.60;64.20;;;;;;5076713;28;20138;-81
2022/09/05 13:32:08;;;;;;;0.00;0.00;;;30.30;65.20;;;;;;5076573;28;20051;-80
2022/09/05 13:34:45;;;;;;;0.10;0.10;;;29.90;65.70;;;;;;5059490;28;20489;-80
2022/09/05 13:37:18;;;;;;;0.00;0.00;;;29.60;67.30;;;;;;5077547;28;20465;-81
2022/09/05 13:39:53;;;;;;;0.65;0.10;;;29.70;65.80;;;;;;5109944;28;20053;-81
2022/09/05 13:42:22;;;;;;;0.00;0.00;;;30.00;67.20;;;;;;5076221;28;20079;-81
2022/09/05 13:44:55;;;;;;;0.00;0.00;;;30.00;65.90;;;;;;5059722;28;20140;-81
2022/09/05 13:47:49;;;;;;;0.40;0.10;;;30.10;67.50;;;;;;5060586;28;20060;-81
2022/09/05 13:50:26;;;;;;;0.00;0.00;;;30.20;66.50;;;;;;5076140;28;20055;-82
2022/09/05 13:53:09;;;;;;;0.00;0.00;;;30.30;65.30;;;;;;5059388;28;20079;-81
2022/09/05 13:55:52;;;;;;;0.00;0.00;;;30.30;64.10;;;;;;5076410;28;20052;-81
2022/09/05 13:58:38;;;;;;;0.08;0.00;;;30.40;66.30;;;;;;5060095;28;20217;-81
2022/09/05 14:01:10;;;;;;;0.08;0.03;;;30.20;66.20;;;;;;5076087;28;20086;-81
2022/09/05 14:04:32;;;;;;;0.13;0.05;;;30.00;66.00;;;;;;5075701;28;20094;-81
2022/09/05 14:07:25;;;;;;;0.00;0.00;;;29.70;65.50;;;;;;5037973;28;20048;-81
2022/09/05 14:09:56;;;;;;;0.00;0.00;;;29.70;64.70;;;;;;4976056;28;20113;-81